If you wish to contribute or participate in the discussions about articles you are invited to join SKYbrary as a registered user

 Actions

Nancy-Essey Airport

From SKYbrary Wiki

LFSN
Airport
ICAO: LFSN – IATA: ENC
Summary
Name Nancy-Essey Airport
Region Europe
Territory France FR.gif
Location , Lorraine
Serving Nancy
Elevation 228.905 m
751 ft
751 ft228.905 m
Type medium airport
Coordinates 48° 41' 31.45" N, 6° 13' 49.65" E
Runways
Designator Length Width Surface ROPS
3/21 1400 m4,593.176 ft
40 m131.234 ft
ASP yes/yes


METAR
Observation LFSN 270900Z AUTO 05012KT 9999 0550 R03/P2000 // NSC 30/19 Q1024
Station Nancy / Essey
Date/Time 27 June 2019 09:00:00
Wind direction 50°
Wind speed 12 kts
Lowest cloud amount nil significant cloud
Temperature 30°C
Dew point 19°C
Humidity 51%
QNH 1024 hPa
Weather condition n/a